Time;durP1;ratioP1;P1;durP2;ratioP2;P2;SDS_P1;SDS_P2;PMS_P1;PMS_P2;Temp;Humidity;BMP_temperature;BMP_pressure;BME280_temperature;BME280_humidity;BME280_pressure;Samples;Min_cycle;Max_cycle;Signal;HPM_P1;HPM_P2
2021/10/09 00:02:13;;;;;;;1.80;1.80;;;;;;;6.19;78.27;95547.47;5053391;28;20053;-84
2021/10/09 00:04:48;;;;;;;1.67;1.52;;;;;;;6.26;77.66;95553.50;5068455;28;20037;-84
2021/10/09 00:07:13;;;;;;;2.13;2.03;;;;;;;6.10;78.58;95556.34;5059505;28;20038;-84
2021/10/09 00:09:39;;;;;;;2.33;2.22;;;;;;;6.06;78.87;95552.53;5053639;28;20029;-84
2021/10/09 00:12:04;;;;;;;2.60;2.08;;;;;;;6.03;79.08;95555.50;5048756;28;20444;-84
2021/10/09 00:14:30;;;;;;;2.28;2.17;;;;;;;6.04;79.47;95549.34;5066891;28;20140;-84
2021/10/09 00:16:55;;;;;;;2.60;2.40;;;;;;;6.02;79.28;95546.94;5065891;28;20034;-84
2021/10/09 00:19:20;;;;;;;2.33;2.22;;;;;;;6.01;79.40;95545.31;5065710;28;20036;-84
2021/10/09 00:21:46;;;;;;;3.17;2.53;;;;;;;6.09;79.57;95545.22;5050745;28;20076;-84
2021/10/09 00:24:12;;;;;;;2.40;2.20;;;;;;;6.14;79.48;95542.06;5049978;28;20037;-84
2021/10/09 00:26:38;;;;;;;5.15;2.60;;;;;;;6.23;79.00;95544.34;5072026;28;20559;-82
2021/10/09 00:29:03;;;;;;;4.50;2.40;;;;;;;6.31;79.18;95535.63;5047292;28;20030;-83
2021/10/09 00:31:29;;;;;;;3.75;3.03;;;;;;;6.34;78.52;95537.84;5050224;28;20044;-83
2021/10/09 00:33:54;;;;;;;2.70;2.50;;;;;;;6.42;78.63;95535.13;5049026;28;20090;-83
2021/10/09 00:36:20;;;;;;;3.00;2.80;;;;;;;6.23;79.05;95530.63;5035258;28;20049;-84
2021/10/09 00:38:45;;;;;;;3.28;2.90;;;;;;;6.30;78.83;95524.50;5029597;28;20025;-83
2021/10/09 00:41:11;;;;;;;2.72;2.63;;;;;;;6.14;79.50;95523.97;5048572;28;20556;-83
2021/10/09 00:43:36;;;;;;;3.47;2.75;;;;;;;6.32;79.29;95519.16;5063666;28;20047;-84
2021/10/09 00:46:03;;;;;;;2.45;2.35;;;;;;;6.38;78.83;95523.59;5061007;28;20045;-84
2021/10/09 00:48:30;;;;;;;2.40;2.30;;;;;;;6.45;78.41;95521.84;5073711;28;20529;-85
2021/10/09 00:50:55;;;;;;;2.80;2.60;;;;;;;6.40;78.69;95524.19;5058433;28;20071;-84
2021/10/09 00:53:21;;;;;;;2.60;2.50;;;;;;;6.46;78.37;95523.44;5052742;28;20524;-84
2021/10/09 00:55:47;;;;;;;2.40;2.20;;;;;;;6.47;78.58;95519.84;5052306;28;20064;-84
2021/10/09 00:58:12;;;;;;;2.88;2.75;;;;;;;6.63;78.14;95529.91;5032799;28;20479;-84
2021/10/09 01:00:39;;;;;;;3.15;2.83;;;;;;;6.65;78.41;95527.13;5030961;28;20033;-84
2021/10/09 01:03:05;;;;;;;3.47;3.17;;;;;;;6.70;77.88;95518.81;5051558;28;20051;-84
2021/10/09 01:05:31;;;;;;;3.33;3.05;;;;;;;6.71;78.35;95520.44;5052208;28;20034;-84
2021/10/09 01:07:57;;;;;;;2.28;2.10;;;;;;;6.70;77.04;95514.47;5059688;28;20034;-83
2021/10/09 01:10:22;;;;;;;2.13;2.03;;;;;;;6.55;77.86;95516.34;5061022;28;20040;-84
2021/10/09 01:12:48;;;;;;;2.38;2.28;;;;;;;6.44;78.21;95519.44;5062135;28;20049;-83
2021/10/09 01:15:20;;;;;;;3.13;2.35;;;;;;;6.55;78.49;95519.72;5064230;28;20071;-83
2021/10/09 01:17:46;;;;;;;2.60;2.40;;;;;;;6.46;78.31;95525.22;5061335;28;20053;-83
2021/10/09 01:22:41;;;;;;;3.28;3.00;;;;;;;6.19;79.63;95512.13;5096184;22;20052;-83
2021/10/09 01:25:07;;;;;;;3.20;2.60;;;;;;;6.15;79.48;95510.88;5061359;28;20063;-83
2021/10/09 01:27:33;;;;;;;2.33;2.22;;;;;;;6.22;79.60;95510.94;5038954;28;20231;-83
2021/10/09 01:29:58;;;;;;;2.30;2.20;;;;;;;6.16;79.22;95509.91;5050809;28;20045;-84
2021/10/09 01:32:24;;;;;;;2.15;2.05;;;;;;;6.19;79.72;95511.34;5049589;28;20056;-84
2021/10/09 01:34:50;;;;;;;2.03;1.92;;;;;;;6.17;79.36;95516.66;5049662;28;20033;-84
2021/10/09 01:37:39;;;;;;;2.00;1.90;;;;;;;6.28;79.46;95515.34;5048266;28;20481;-84
2021/10/09 01:40:05;;;;;;;2.38;2.25;;;;;;;6.13;79.21;95510.28;5043143;28;20045;-83
2021/10/09 01:42:30;;;;;;;2.15;2.05;;;;;;;6.10;79.59;95512.44;5048433;28;20473;-84
2021/10/09 01:44:56;;;;;;;2.35;2.17;;;;;;;6.08;79.62;95504.88;5037157;28;20029;-82
2021/10/09 01:47:21;;;;;;;2.30;2.10;;;;;;;5.98;80.36;95505.19;5048899;28;20563;-84
2021/10/09 01:49:49;;;;;;;2.05;1.95;;;;;;;5.90;80.37;95492.44;5057455;28;20021;-83
2021/10/09 01:52:15;;;;;;;3.75;2.33;;;;;;;5.99;81.41;95501.63;5050025;28;20069;-83
2021/10/09 01:54:40;;;;;;;4.90;3.00;;;;;;;6.01;80.97;95504.81;5053319;28;20041;-84
2021/10/09 01:59:41;;;;;;;3.75;3.40;;;;;;;5.98;80.92;95497.44;5189388;22;20083;-85
2021/10/09 02:02:06;;;;;;;3.25;3.05;;;;;;;5.95;80.64;95502.97;5073711;28;20048;-85
2021/10/09 02:04:33;;;;;;;2.63;2.47;;;;;;;6.05;80.42;95494.13;5053534;28;20040;-84
2021/10/09 02:07:02;;;;;;;2.58;2.47;;;;;;;6.07;80.31;95497.31;5069580;28;20040;-85
2021/10/09 02:09:27;;;;;;;2.35;2.15;;;;;;;6.04;81.09;95498.50;5070018;28;20305;-85
2021/10/09 02:11:53;;;;;;;3.45;2.33;;;;;;;5.99;80.25;95496.47;5070121;28;20039;-86
2021/10/09 02:27:48;;;;;;;3.28;2.97;;;;;;;5.74;81.00;95513.28;5067409;28;20059;-85
2021/10/09 02:30:13;;;;;;;4.25;3.80;;;;;;;5.69;81.64;95513.03;5085430;28;20040;-84
2021/10/09 02:32:39;;;;;;;3.40;3.20;;;;;;;5.61;82.66;95508.81;5067694;28;20029;-85
2021/10/09 02:35:05;;;;;;;4.03;3.72;;;;;;;5.52;82.17;95506.50;5068321;28;20047;-84
2021/10/09 02:37:30;;;;;;;4.30;3.90;;;;;;;5.40;82.67;95507.00;5051538;28;20475;-85
2021/10/09 02:39:56;;;;;;;8.05;3.85;;;;;;;5.43;83.45;95516.16;5084002;28;20028;-85
2021/10/09 02:42:21;;;;;;;4.03;3.72;;;;;;;5.40;83.69;95506.22;5126235;22;20584;-85
2021/10/09 02:44:47;;;;;;;5.30;4.78;;;;;;;5.40;83.65;95501.84;5056802;28;20017;-85
2021/10/09 02:47:25;;;;;;;4.70;4.30;;;;;;;5.53;83.19;95508.94;5058008;28;20094;-85
2021/10/09 02:49:50;;;;;;;3.85;3.55;;;;;;;5.56;82.27;95505.19;5040701;28;20381;-85
2021/10/09 02:52:16;;;;;;;4.15;3.85;;;;;;;5.61;82.56;95503.63;5059782;28;20573;-85
2021/10/09 02:54:41;;;;;;;4.13;3.75;;;;;;;5.73;82.68;95512.50;5064036;28;20028;-84
2021/10/09 02:57:06;;;;;;;3.90;3.65;;;;;;;5.68;82.40;95508.84;5062621;28;20045;-84
2021/10/09 02:59:32;;;;;;;5.97;4.00;;;;;;;5.68;82.54;95509.66;5060024;28;20049;-83
2021/10/09 03:01:57;;;;;;;8.65;3.78;;;;;;;5.67;81.72;95504.69;5057665;28;20095;-84
2021/10/09 03:04:23;;;;;;;5.88;4.32;;;;;;;5.49;82.40;95504.31;5057866;28;20396;-85
2021/10/09 03:06:48;;;;;;;4.40;4.10;;;;;;;5.49;82.99;95512.03;5200323;23;20056;-84
2021/10/09 03:09:14;;;;;;;3.50;3.30;;;;;;;5.59;82.99;95504.81;5067743;28;20037;-84
2021/10/09 03:11:39;;;;;;;3.50;3.30;;;;;;;5.52;83.12;95509.09;5064997;28;20029;-84
2021/10/09 03:14:05;;;;;;;3.92;3.63;;;;;;;5.51;83.00;95505.72;5065732;28;20029;-85
2021/10/09 03:16:30;;;;;;;5.53;4.20;;;;;;;5.53;82.40;95508.94;5064651;28;20040;-85
2021/10/09 03:18:56;;;;;;;6.07;4.07;;;;;;;5.51;82.43;95505.72;5047020;28;20677;-84
2021/10/09 03:21:22;;;;;;;4.13;3.83;;;;;;;5.43;83.15;95506.63;5051558;28;20036;-84
2021/10/09 03:23:47;;;;;;;4.65;4.28;;;;;;;5.48;83.08;95507.88;5033767;28;20049;-84
2021/10/09 03:26:12;;;;;;;3.90;3.60;;;;;;;5.53;82.52;95508.09;5103902;22;20032;-85
2021/10/09 03:28:38;;;;;;;5.43;3.85;;;;;;;5.65;81.52;95506.66;5069377;28;20040;-84
2021/10/09 03:31:03;;;;;;;4.05;3.75;;;;;;;5.81;81.89;95503.81;5068309;28;20083;-85
2021/10/09 03:33:50;;;;;;;3.13;2.83;;;;;;;5.80;80.00;95506.59;5040934;28;20025;-85
2021/10/09 03:36:36;;;;;;;6.25;3.70;;;;;;;5.58;80.92;95498.06;5107438;22;20052;-84
2021/10/09 03:39:05;;;;;;;3.40;3.10;;;;;;;5.56;81.96;95510.34;5080891;28;20041;-85
2021/10/09 03:41:31;;;;;;;10.70;3.75;;;;;;;5.52;82.46;95499.56;5075261;28;20041;-84
2021/10/09 03:43:56;;;;;;;3.35;3.15;;;;;;;5.51;81.92;95499.75;5069407;28;20029;-84
2021/10/09 03:46:29;;;;;;;7.40;3.60;;;;;;;5.40;82.53;95504.44;5087875;28;20040;-84
2021/10/09 03:54:04;;;;;;;3.50;3.20;;;;;;;5.58;82.58;95503.22;5074618;28;20044;-84
2021/10/09 03:56:30;;;;;;;5.68;3.33;;;;;;;5.59;81.18;95504.81;5070982;28;20040;-84
2021/10/09 03:58:55;;;;;;;6.50;3.70;;;;;;;5.57;82.01;95501.63;5069434;28;20022;-84
2021/10/09 04:01:21;;;;;;;4.47;4.07;;;;;;;5.63;81.31;95503.44;5074496;28;20037;-84
2021/10/09 04:03:58;;;;;;;3.75;3.42;;;;;;;5.58;81.10;95500.63;5090025;28;20037;-83
2021/10/09 04:06:27;;;;;;;49.78;29.27;;;;;;;5.47;80.87;95491.59;5087265;28;20097;-84
2021/10/09 04:08:52;;;;;;;22.42;12.30;;;;;;;5.51;81.59;95508.28;5074329;28;20673;-84
2021/10/09 04:11:21;;;;;;;3.28;3.08;;;;;;;5.57;81.55;95504.19;5069185;28;20411;-84
2021/10/09 04:13:46;;;;;;;3.22;3.03;;;;;;;5.53;81.30;95500.38;5071786;28;20032;-84
2021/10/09 04:16:12;;;;;;;3.90;2.85;;;;;;;5.49;79.79;95504.31;5074389;28;20032;-84
2021/10/09 04:18:37;;;;;;;3.33;3.13;;;;;;;5.34;80.34;95492.25;5072888;28;20037;-84
2021/10/09 04:21:03;;;;;;;4.88;3.20;;;;;;;5.37;80.87;95501.41;5064534;28;20021;-84
2021/10/09 04:23:29;;;;;;;6.05;3.00;;;;;;;5.36;80.26;95505.75;5056005;28;20037;-84
2021/10/09 04:25:54;;;;;;;3.05;2.85;;;;;;;5.31;80.88;95502.13;5064562;28;20553;-85
2021/10/09 04:28:20;;;;;;;2.80;2.70;;;;;;;5.39;80.96;95500.25;5070922;28;20499;-84
2021/10/09 04:30:45;;;;;;;2.60;2.47;;;;;;;5.39;80.19;95502.84;5065018;28;20519;-84
2021/10/09 04:33:11;;;;;;;2.83;2.67;;;;;;;5.46;79.38;95502.09;5074428;28;20408;-83
2021/10/09 04:35:36;;;;;;;3.95;2.90;;;;;;;5.53;79.16;95506.34;5087976;28;20044;-84
2021/10/09 04:38:08;;;;;;;3.20;2.90;;;;;;;5.47;79.29;95503.69;5091271;28;20021;-83
2021/10/09 04:40:34;;;;;;;4.35;3.05;;;;;;;5.43;80.04;95501.47;5075012;28;20060;-84
2021/10/09 04:42:59;;;;;;;5.75;3.20;;;;;;;5.51;79.16;95507.50;5067389;28;20035;-84
2021/10/09 04:45:25;;;;;;;3.13;2.92;;;;;;;5.48;79.49;95502.72;5079109;28;20044;-84
2021/10/09 04:47:53;;;;;;;3.58;3.28;;;;;;;5.59;79.56;95504.81;5055424;28;20416;-84
2021/10/09 04:50:19;;;;;;;2.72;2.63;;;;;;;5.61;78.04;95503.63;5072074;28;20040;-84
2021/10/09 04:52:44;;;;;;;3.22;3.03;;;;;;;5.73;78.75;95509.13;5073578;28;20044;-83
2021/10/09 04:55:09;;;;;;;3.20;3.00;;;;;;;5.78;78.30;95514.53;5071602;28;20029;-85
2021/10/09 04:57:35;;;;;;;2.88;2.67;;;;;;;5.56;78.45;95505.19;5070668;28;20082;-85
2021/10/09 05:00:01;;;;;;;3.47;3.17;;;;;;;5.67;79.09;95513.22;5090057;28;20024;-84
2021/10/09 05:02:26;;;;;;;3.45;3.15;;;;;;;5.67;78.89;95508.06;5074180;28;20041;-85
2021/10/09 05:04:52;;;;;;;3.15;2.95;;;;;;;5.64;77.96;95512.78;5080055;28;20029;-83
2021/10/09 05:07:17;;;;;;;3.40;3.20;;;;;;;5.68;77.29;95524.34;5090894;28;20036;-84
2021/10/09 05:09:43;;;;;;;3.38;3.10;;;;;;;5.77;77.66;95512.91;5074913;28;20043;-86
2021/10/09 05:12:08;;;;;;;2.75;2.63;;;;;;;5.73;77.76;95511.69;5073601;28;20028;-85
2021/10/09 05:14:34;;;;;;;3.47;3.28;;;;;;;5.68;77.58;95519.16;5073814;28;20096;-84
2021/10/09 05:17:00;;;;;;;5.43;3.50;;;;;;;5.72;77.93;95517.84;5086010;28;20029;-85
2021/10/09 05:19:26;;;;;;;3.42;3.22;;;;;;;5.77;77.99;95523.25;5054774;28;20046;-84
2021/10/09 05:21:51;;;;;;;3.42;3.13;;;;;;;5.72;77.77;95515.25;5237314;23;20076;-85
2021/10/09 05:24:17;;;;;;;4.40;3.72;;;;;;;5.75;77.67;95514.88;5034676;28;20033;-83
2021/10/09 05:26:42;;;;;;;3.53;3.22;;;;;;;5.75;78.00;95520.06;5018033;28;20048;-84
2021/10/09 05:29:27;;;;;;;3.92;3.30;;;;;;;5.73;77.76;95522.03;5000026;28;20058;-84
2021/10/09 05:32:02;;;;;;;5.07;4.13;;;;;;;5.73;78.69;95512.50;4977882;28;20046;-82
2021/10/09 05:34:27;;;;;;;3.63;3.42;;;;;;;5.78;78.38;95522.25;4964088;29;20035;-82
2021/10/09 05:36:53;;;;;;;3.92;3.63;;;;;;;5.89;77.59;95521.78;4961730;28;20035;-80
2021/10/09 05:39:18;;;;;;;4.22;3.35;;;;;;;5.96;77.73;95530.41;4957808;29;20035;-83
2021/10/09 05:41:44;;;;;;;3.85;3.53;;;;;;;6.01;77.87;95528.03;4957696;29;20034;-83
2021/10/09 05:44:50;;;;;;;3.30;3.00;;;;;;;5.96;76.98;95522.66;4961524;29;20046;-83
2021/10/09 05:47:16;;;;;;;3.00;2.70;;;;;;;6.12;76.99;95525.97;4960116;29;20121;-83
2021/10/09 05:49:50;;;;;;;3.20;3.00;;;;;;;6.12;76.28;95515.63;4961465;28;20039;-83
2021/10/09 05:52:46;;;;;;;2.38;2.28;;;;;;;6.17;75.75;95518.44;4944057;29;20074;-81
2021/10/09 05:58:18;;;;;;;2.67;2.47;;;;;;;6.15;76.65;95536.72;4959757;28;20086;-81
2021/10/09 06:44:33;;;;;;;2.50;2.40;;;;;;;5.92;77.29;95570.47;4962197;29;20038;-82
2021/10/09 06:47:20;;;;;;;3.35;2.97;;;;;;;5.89;77.48;95567.44;4960326;29;20126;-80
2021/10/09 07:00:37;;;;;;;3.30;3.00;;;;;;;5.88;78.00;95564.06;4975545;28;20042;-79
2021/10/09 07:03:03;;;;;;;3.55;2.70;;;;;;;5.99;77.53;95560.19;4971756;28;20053;-80
2021/10/09 07:05:29;;;;;;;3.55;2.88;;;;;;;6.10;77.83;95562.28;4974289;28;20121;-79
2021/10/09 07:07:57;;;;;;;2.83;2.63;;;;;;;6.14;76.90;95563.50;4974824;28;20043;-78
2021/10/09 07:10:23;;;;;;;2.63;2.40;;;;;;;6.24;76.42;95560.63;4975486;28;20031;-80
2021/10/09 07:12:48;;;;;;;2.53;2.33;;;;;;;6.39;76.29;95569.09;4975448;28;20058;-80
2021/10/09 07:15:18;;;;;;;3.15;2.95;;;;;;;6.37;76.55;95570.28;4976983;28;20086;-79
2021/10/09 07:17:45;;;;;;;2.88;2.67;;;;;;;6.44;76.73;95574.50;4979759;28;20056;-79
2021/10/09 07:20:10;;;;;;;2.90;2.72;;;;;;;6.43;77.04;95572.09;4976149;28;20069;-79
2021/10/09 07:22:36;;;;;;;3.17;2.70;;;;;;;6.42;76.39;95575.66;4973229;28;20035;-79
2021/10/09 07:25:02;;;;;;;2.90;2.70;;;;;;;6.40;77.38;95575.88;4932147;28;20045;-77
2021/10/09 07:27:28;;;;;;;4.45;3.08;;;;;;;6.56;77.16;95579.97;4972136;28;20097;-76
2021/10/09 07:29:53;;;;;;;2.80;2.60;;;;;;;6.46;76.80;95582.84;4974539;28;20027;-79
2021/10/09 07:32:19;;;;;;;5.68;3.00;;;;;;;6.39;77.20;95584.59;4958610;28;20107;-79
2021/10/09 07:34:44;;;;;;;3.40;2.85;;;;;;;6.41;77.08;95577.47;4975015;28;20105;-79
2021/10/09 07:37:10;;;;;;;3.95;2.80;;;;;;;6.35;77.71;95578.22;4975963;28;20483;-79
2021/10/09 07:39:36;;;;;;;2.83;2.63;;;;;;;6.50;76.62;95578.09;4975377;28;20630;-79
2021/10/09 07:42:01;;;;;;;3.70;3.40;;;;;;;6.57;77.56;95569.44;4972050;28;20118;-81
2021/10/09 07:44:27;;;;;;;2.78;2.58;;;;;;;6.58;77.25;95577.97;4975551;28;20524;-82
2021/10/09 07:46:53;;;;;;;3.50;3.20;;;;;;;6.53;77.11;95573.38;4975230;28;20042;-80
2021/10/09 07:49:18;;;;;;;5.38;3.80;;;;;;;6.57;76.75;95569.44;4973862;28;20101;-80
2021/10/09 07:51:45;;;;;;;4.22;2.78;;;;;;;6.53;76.52;95570.81;4958170;28;20062;-79
2021/10/09 07:54:10;;;;;;;3.60;3.28;;;;;;;6.64;76.28;95577.22;4984668;28;20106;-79
2021/10/09 07:56:36;;;;;;;3.60;3.25;;;;;;;6.70;76.47;95580.84;4976125;28;20084;-79
2021/10/09 07:59:02;;;;;;;5.20;3.15;;;;;;;6.67;76.22;95578.63;4946556;28;20043;-79
2021/10/09 08:01:27;;;;;;;3.92;2.92;;;;;;;6.91;76.83;95588.53;4959909;28;20035;-79
2021/10/09 08:03:52;;;;;;;8.43;3.67;;;;;;;7.10;75.51;95582.69;4978224;28;20035;-79
2021/10/09 08:06:18;;;;;;;4.50;3.75;;;;;;;7.32;75.58;95590.34;4978257;28;20043;-79
2021/10/09 08:08:44;;;;;;;6.60;4.45;;;;;;;7.55;74.55;95593.44;4966301;28;20042;-79
2021/10/09 08:11:12;;;;;;;5.47;4.93;;;;;;;7.62;73.69;95591.66;4959140;28;20090;-78
2021/10/09 08:13:38;;;;;;;4.82;4.43;;;;;;;7.42;74.50;95590.78;4960593;28;20085;-79
2021/10/09 08:16:04;;;;;;;4.25;3.88;;;;;;;7.45;74.19;95598.16;4960382;28;20079;-80
2021/10/09 08:18:29;;;;;;;5.93;5.18;;;;;;;7.39;74.40;95602.34;4977916;28;20027;-79
2021/10/09 08:21:05;;;;;;;4.55;4.15;;;;;;;7.27;75.69;95592.72;4979237;28;20030;-81
2021/10/09 08:39:29;;;;;;;4.70;4.18;;;;;;;7.55;75.34;95600.41;4976665;28;20422;-79
2021/10/09 08:41:54;;;;;;;5.00;4.03;;;;;;;7.55;74.91;95615.94;4978020;28;20490;-79
2021/10/09 08:44:20;;;;;;;4.25;3.25;;;;;;;7.44;74.85;95604.34;4975337;28;20067;-79
2021/10/09 08:46:46;;;;;;;3.28;3.00;;;;;;;7.25;75.09;95607.63;4976693;28;20033;-79
2021/10/09 08:49:12;;;;;;;4.93;3.40;;;;;;;7.28;74.98;95620.97;4961329;28;20034;-77
2021/10/09 08:51:42;;;;;;;3.35;2.90;;;;;;;7.33;74.81;95607.50;4948913;28;20042;-78
2021/10/09 08:54:09;;;;;;;4.10;3.17;;;;;;;7.34;74.92;95609.88;4976883;28;20056;-81
2021/10/09 08:56:43;;;;;;;3.55;3.25;;;;;;;7.49;74.97;95613.13;4975714;28;20042;-81
2021/10/09 08:59:10;;;;;;;3.28;2.97;;;;;;;7.68;74.52;95606.44;4961489;28;20050;-81
2021/10/09 09:01:47;;;;;;;3.70;3.38;;;;;;;7.79;74.30;95603.28;4965726;28;20141;-78
2021/10/09 09:40:06;;;;;;;6.95;3.78;;;;;;;8.21;75.89;95616.94;4994049;28;20034;-78
2021/10/09 09:42:32;;;;;;;4.15;3.67;;;;;;;8.11;76.01;95612.13;4984589;28;20098;-80
2021/10/09 09:44:59;;;;;;;6.70;4.18;;;;;;;8.28;76.56;95622.91;4955579;28;20027;-79
2021/10/09 09:47:39;;;;;;;4.35;3.92;;;;;;;8.60;75.36;95615.38;4940604;28;20069;-81
2021/10/09 09:50:07;;;;;;;6.05;4.10;;;;;;;8.43;76.93;95618.38;4938639;28;20097;-80
2021/10/09 09:52:36;;;;;;;10.00;4.43;;;;;;;8.11;78.06;95616.50;4956066;28;20039;-78
2021/10/09 09:55:03;;;;;;;5.63;3.97;;;;;;;8.04;78.85;95631.25;4969133;28;20027;-80
2021/10/09 09:57:29;;;;;;;5.68;4.68;;;;;;;8.06;78.42;95621.47;4962783;28;20111;-79
2021/10/09 09:59:55;;;;;;;7.63;4.07;;;;;;;7.99;78.57;95638.81;4979168;28;20099;-80
2021/10/09 10:02:20;;;;;;;5.60;3.83;;;;;;;7.99;77.88;95628.44;4962084;28;20045;-79
2021/10/09 10:04:46;;;;;;;8.32;3.65;;;;;;;8.00;77.93;95625.66;4958689;28;20039;-80
2021/10/09 10:07:11;;;;;;;3.67;3.47;;;;;;;8.06;77.27;95629.25;4973041;28;20027;-77
2021/10/09 10:09:37;;;;;;;9.95;3.72;;;;;;;8.20;76.75;95624.91;4971468;28;20031;-79
2021/10/09 10:12:03;;;;;;;4.35;3.67;;;;;;;8.25;76.51;95632.88;4954716;28;20485;-78
2021/10/09 10:14:30;;;;;;;5.65;3.42;;;;;;;8.27;76.00;95631.66;4927315;28;20031;-77
2021/10/09 10:16:56;;;;;;;4.95;3.92;;;;;;;8.34;75.33;95627.34;4928951;28;20395;-77
2021/10/09 10:19:53;;;;;;;4.28;3.25;;;;;;;8.39;75.54;95619.75;4971361;28;20030;-79
2021/10/09 10:22:39;;;;;;;5.43;3.92;;;;;;;8.26;76.02;95616.31;4971932;28;20045;-78
2021/10/09 10:25:24;;;;;;;4.38;3.38;;;;;;;8.46;74.91;95617.19;4969383;28;20043;-78
2021/10/09 10:28:02;;;;;;;4.28;3.42;;;;;;;8.46;74.75;95614.59;4971050;28;20034;-78
2021/10/09 10:30:41;;;;;;;4.30;3.50;;;;;;;8.49;74.59;95618.59;4971624;28;20418;-78
2021/10/09 10:33:06;;;;;;;4.13;3.53;;;;;;;8.42;73.76;95613.38;4971241;28;20102;-79
2021/10/09 10:35:32;;;;;;;5.85;3.83;;;;;;;8.46;74.05;95618.97;4973582;28;20121;-78
2021/10/09 10:38:07;;;;;;;4.82;2.85;;;;;;;8.52;72.81;95620.78;4969944;28;20041;-79
2021/10/09 10:40:56;;;;;;;4.38;3.55;;;;;;;8.56;72.85;95624.56;4952080;28;20166;-79
2021/10/09 10:46:02;;;;;;;3.50;3.20;;;;;;;8.42;72.91;95614.19;4995068;28;20054;-78
2021/10/09 10:49:03;;;;;;;2.95;2.72;;;;;;;8.61;73.13;95616.97;4970918;28;20022;-78
2021/10/09 10:54:13;;;;;;;4.20;3.33;;;;;;;8.59;73.21;95616.38;4994422;28;20047;-78
2021/10/09 10:57:01;;;;;;;3.35;3.05;;;;;;;8.56;73.80;95607.22;5011603;23;20056;-78
2021/10/09 10:59:30;;;;;;;6.00;3.95;;;;;;;8.68;73.96;95612.59;4975107;28;20506;-78
2021/10/09 11:02:11;;;;;;;4.55;3.60;;;;;;;8.66;73.49;95614.59;4973470;28;20038;-77
2021/10/09 11:04:40;;;;;;;5.22;4.68;;;;;;;8.59;74.11;95621.56;4965859;28;20035;-79
2021/10/09 11:07:06;;;;;;;7.82;5.07;;;;;;;8.43;74.72;95613.19;4923770;29;20036;-78
2021/10/09 11:09:32;;;;;;;6.07;4.95;;;;;;;8.35;75.47;95618.56;4951861;29;20102;-79
2021/10/09 11:12:01;;;;;;;5.18;4.00;;;;;;;8.35;75.66;95615.19;4960008;29;20030;-79
2021/10/09 11:14:27;;;;;;;4.68;3.88;;;;;;;8.38;75.10;95607.81;4956668;29;20038;-78
2021/10/09 11:17:00;;;;;;;9.77;4.72;;;;;;;8.48;76.08;95601.44;4970584;29;20051;-79
2021/10/09 11:19:45;;;;;;;5.32;4.82;;;;;;;8.55;75.08;95607.41;4954378;29;20055;-79
2021/10/09 11:22:40;;;;;;;5.13;4.63;;;;;;;8.50;75.85;95596.84;4970240;29;20019;-78
2021/10/09 11:25:06;;;;;;;4.72;4.32;;;;;;;8.61;75.70;95604.00;4971836;29;20035;-78
2021/10/09 11:27:38;;;;;;;6.07;4.28;;;;;;;8.65;76.39;95589.69;4963163;28;20035;-78
2021/10/09 11:30:29;;;;;;;4.45;4.00;;;;;;;8.83;75.93;95596.84;4956587;29;20031;-78
2021/10/09 11:32:55;;;;;;;7.10;4.53;;;;;;;8.90;75.90;95595.81;4970839;29;20035;-78
2021/10/09 11:35:34;;;;;;;9.88;5.05;;;;;;;8.90;75.09;95595.81;4971858;28;20267;-78
2021/10/09 11:38:02;;;;;;;9.10;4.22;;;;;;;8.94;75.23;95596.22;4970517;29;20039;-78
2021/10/09 11:40:55;;;;;;;5.72;5.00;;;;;;;9.10;74.83;95594.97;4955279;29;20110;-78
2021/10/09 11:43:45;;;;;;;10.40;5.93;;;;;;;8.90;75.29;95597.63;4970064;29;20035;-78
2021/10/09 11:55:17;;;;;;;8.88;6.10;;;;;;;8.69;78.19;95593.47;4976461;28;20043;-78
2021/10/09 11:57:43;;;;;;;8.65;5.88;;;;;;;8.72;78.34;95593.06;4965019;29;20121;-78
2021/10/09 12:00:27;;;;;;;13.27;6.57;;;;;;;8.49;78.57;95597.84;4957539;28;20456;-78
2021/10/09 12:02:59;;;;;;;15.07;6.65;;;;;;;8.54;78.92;95595.44;4954181;28;20071;-78
2021/10/09 12:05:34;;;;;;;9.27;7.10;;;;;;;8.51;78.10;95598.44;4944072;29;20035;-79
2021/10/09 12:08:17;;;;;;;16.55;8.57;;;;;;;8.23;78.79;95599.38;4953203;29;20035;-79
2021/10/09 12:11:12;;;;;;;4.38;3.97;;;;;;;7.84;77.86;95605.28;4951902;28;20487;-79
2021/10/09 12:13:55;;;;;;;3.83;3.28;;;;;;;7.53;78.64;95604.00;4942610;29;20032;-80
2021/10/09 12:16:32;;;;;;;3.90;3.60;;;;;;;7.59;80.42;95597.22;4929937;29;20067;-78
2021/10/09 12:19:08;;;;;;;6.50;3.35;;;;;;;7.59;79.25;95601.63;4953815;29;20041;-80
2021/10/09 12:21:37;;;;;;;4.22;3.17;;;;;;;7.62;79.56;95601.22;4952477;29;20628;-79
2021/10/09 12:24:22;;;;;;;3.20;3.00;;;;;;;7.47;79.50;95601.34;4953576;28;20388;-79
2021/10/09 12:27:12;;;;;;;3.45;3.05;;;;;;;7.43;80.17;95602.75;4951152;29;20027;-79
2021/10/09 12:30:04;;;;;;;3.40;3.08;;;;;;;7.62;79.49;95607.19;4959119;28;20127;-79
2021/10/09 12:32:39;;;;;;;5.60;4.30;;;;;;;7.75;78.70;95609.84;4958548;29;20090;-80
2021/10/09 12:35:17;;;;;;;6.75;5.28;;;;;;;7.82;78.97;95608.09;4955697;29;20055;-80
2021/10/09 12:37:55;;;;;;;4.95;3.90;;;;;;;7.64;80.00;95612.97;4957592;28;20125;-80
2021/10/09 12:40:39;;;;;;;6.05;2.92;;;;;;;7.69;79.25;95622.75;4957689;29;20126;-79
2021/10/09 12:43:10;;;;;;;8.23;5.10;;;;;;;7.80;79.13;95628.16;4958745;29;20036;-81
2021/10/09 12:45:36;;;;;;;5.95;4.50;;;;;;;7.69;78.59;95631.31;4943016;29;20098;-80
2021/10/09 12:48:01;;;;;;;5.70;4.82;;;;;;;7.79;78.84;95636.13;4967494;29;20035;-80
2021/10/09 12:50:34;;;;;;;10.43;5.20;;;;;;;7.94;78.80;95631.59;4961674;28;20047;-80
2021/10/09 12:52:59;;;;;;;7.97;5.82;;;;;;;8.10;78.45;95635.63;4936569;29;20039;-81
2021/10/09 12:55:26;;;;;;;4.70;4.30;;;;;;;8.19;77.36;95634.47;4944278;29;20031;-80
2021/10/09 12:57:56;;;;;;;4.35;3.95;;;;;;;8.32;77.09;95644.84;4918578;29;20054;-80
2021/10/09 13:00:22;;;;;;;6.30;4.65;;;;;;;8.30;76.84;95646.84;4943525;29;20098;-80
2021/10/09 13:02:51;;;;;;;5.03;4.60;;;;;;;8.33;77.23;95648.25;4933955;29;20093;-80
2021/10/09 13:05:16;;;;;;;5.88;5.10;;;;;;;8.30;77.34;95652.03;4959294;29;20059;-80
2021/10/09 13:07:42;;;;;;;4.25;3.85;;;;;;;8.26;77.02;95661.16;4944261;29;20318;-80
2021/10/09 13:10:07;;;;;;;5.20;4.30;;;;;;;8.30;77.05;95659.00;4943801;29;20039;-80
2021/10/09 13:12:33;;;;;;;7.28;3.40;;;;;;;8.25;77.21;95662.16;4975513;28;20042;-79
2021/10/09 13:14:58;;;;;;;5.57;4.80;;;;;;;8.38;76.50;95670.00;4928009;29;20553;-80
2021/10/09 13:17:24;;;;;;;8.25;4.50;;;;;;;8.05;77.10;95679.47;4952133;29;20480;-79
2021/10/09 13:19:49;;;;;;;4.75;4.45;;;;;;;8.23;76.93;95674.53;4936397;29;20094;-80
2021/10/09 13:22:15;;;;;;;7.70;4.35;;;;;;;8.33;76.49;95676.75;4942825;29;20032;-80
2021/10/09 13:24:40;;;;;;;5.65;4.40;;;;;;;8.29;76.20;95673.72;4943801;29;20039;-81
2021/10/09 13:27:06;;;;;;;8.05;4.25;;;;;;;8.11;77.54;95670.91;4928381;29;20027;-82
2021/10/09 13:29:32;;;;;;;5.70;5.22;;;;;;;7.83;78.01;95661.47;4957778;28;20411;-81
2021/10/09 13:31:57;;;;;;;5.80;5.20;;;;;;;7.92;78.36;95661.28;4960291;28;20050;-79
2021/10/09 13:34:24;;;;;;;4.30;4.00;;;;;;;7.80;79.10;95661.81;4963083;28;20491;-81
2021/10/09 13:36:50;;;;;;;3.88;3.55;;;;;;;7.56;79.31;95664.13;4951262;28;20426;-84
2021/10/09 13:39:15;;;;;;;4.30;3.40;;;;;;;7.44;79.79;95663.84;4961871;28;20035;-81
2021/10/09 13:41:41;;;;;;;6.22;3.60;;;;;;;7.48;79.73;95652.94;4935746;29;20031;-80
2021/10/09 13:44:06;;;;;;;6.88;3.45;;;;;;;7.18;79.89;95652.38;4961093;28;20039;-80
2021/10/09 13:46:32;;;;;;;6.10;3.92;;;;;;;6.99;82.18;95660.78;4961447;28;20027;-81
2021/10/09 13:49:00;;;;;;;3.78;3.25;;;;;;;7.10;81.63;95664.66;4950280;29;20040;-79
2021/10/09 13:51:26;;;;;;;4.43;4.03;;;;;;;7.10;81.67;95659.47;4952793;29;20068;-79
2021/10/09 13:53:51;;;;;;;6.40;4.38;;;;;;;6.94;82.36;95650.22;4972196;28;20036;-79
2021/10/09 13:56:17;;;;;;;8.95;4.20;;;;;;;6.99;82.80;95653.03;4945703;29;20059;-81
2021/10/09 13:58:42;;;;;;;5.10;4.35;;;;;;;7.03;81.63;95654.25;4929480;29;20051;-81
2021/10/09 14:01:08;;;;;;;6.30;4.57;;;;;;;7.05;81.19;95665.22;4948693;29;20483;-79
2021/10/09 14:03:35;;;;;;;9.70;5.07;;;;;;;7.18;81.29;95656.75;4961581;29;20518;-80
2021/10/09 14:06:01;;;;;;;5.03;4.15;;;;;;;7.21;81.64;95662.34;4947584;29;20039;-79
2021/10/09 14:08:26;;;;;;;6.35;4.63;;;;;;;7.36;81.11;95656.25;4957808;29;20031;-82
2021/10/09 14:10:55;;;;;;;5.40;4.65;;;;;;;7.33;80.72;95667.00;4953639;29;20043;-77
2021/10/09 14:13:21;;;;;;;7.63;4.25;;;;;;;7.38;80.93;95651.69;4943891;28;20464;-82
2021/10/09 14:15:47;;;;;;;6.45;4.35;;;;;;;7.46;80.98;95651.50;4933731;29;20054;-79
2021/10/09 14:18:16;;;;;;;7.30;4.72;;;;;;;7.51;80.07;95651.75;4957918;28;20146;-79